KBOIKMYL

Guest
Details From KBOI - Boise Air Terminal (Gowen Field)
To KMYL - Mc Call Muni
Flight Number -
Tags generated
Created
Modified
Stats Distance 81 nm / 151 km
Max Altitude 1,800 ft / 549 m
Waypoints 3
Social Downloads 1
Likes 0
Share VATSIM

Download

Looking for another format? Having issues loading an existing format? Contact us
Advertisement - Login to hide

Notes

Basic altitude profile: - Ascent Rate: 2500ft/min - Ascent Speed: 250kts - Cruise Altitude: 35000ft - Cruise Speed: 420kts - Descent Rate: 1500ft/min - Descent Speed: 250kts Options: - Use NATs: yes - Use PACOTS: yes - Use low airways: no - Use high airways: yes

Route

KBOI DNJ KMYL

ID Type Via Altitude Latitude Longitude Leg Dist Tot Dist Heading (true) Name
O KBOI APT - 0 ft / 0 m 43.55624˚ -116.21495˚ - 0 nm - Boise Air Terminal (Gowen Field)
DNJ VOR - 1,800 ft / 549 m 44.76711˚ -116.20628˚ 72 nm 72 nm 0° / 0° DONNELLY VOR-DME
O KMYL APT - 0 ft / 0 m 44.88874˚ -116.10175˚ 8 nm 81 nm 31° / 31° Mc Call Muni

Altitude Profile

Advertisement - Login to hide

KBOI

Details ICAO KBOI (BOI)
Name Boise Air Terminal (Gowen Field)
Region United States
Timezone America/Boise (UTC-6.0)
Stats Elevation 2,871 ft / 875 m (AMSL)
Location 43.556241° -116.214953°
Runways 3
Magnetic Variation 13.304° E

METAR

KBOI 251453Z 24004KT 10SM CLR 19/11 A2992 RMK AO2 SLP107 T01890106 50000

Decode

TAF

TAF KBOI 251120Z 2512/2612 14008KT P6SM SCT100 TEMPO 2600/2603 VRB20G30KT -TSRA OVC050CB FM260300 30010KT P6SM VCSH BKN100 FM260700 30008KT P6SM BKN100

Decode

Departure Runways

ID Width Length Bearing (true) Bearing (mag) Surface Threshold Offset Overrun Length
09 75 ft / 23 m 4,989 ft / 1,521 m 105.05° 91.75° Asphalt 0 ft / 0 m 200 ft / 61 m
10L 150 ft / 46 m 9,981 ft / 3,042 m 115.21° 101.91° Asphalt 0 ft / 0 m 0 ft / 0 m
10R 150 ft / 46 m 9,745 ft / 2,970 m 115.20° 101.90° Asphalt 0 ft / 0 m 200 ft / 61 m
27 75 ft / 23 m 4,989 ft / 1,521 m 285.06° 271.76° Asphalt 0 ft / 0 m 0 ft / 0 m
28L 150 ft / 46 m 9,745 ft / 2,970 m 295.23° 281.93° Asphalt 0 ft / 0 m 200 ft / 61 m
28R 150 ft / 46 m 9,981 ft / 3,042 m 295.23° 281.93° Asphalt 0 ft / 0 m 200 ft / 61 m

KMYL

Details ICAO KMYL (MYL)
Name Mc Call Muni
Region United States
Timezone America/Boise (UTC-6.0)
Stats Elevation 5,020 ft / 1,530 m (AMSL)
Location 44.888738° -116.101747°
Runways 1
Magnetic Variation 13.531° E

METAR

KMYL 251451Z AUTO 00000KT 10SM BKN090 BKN110 12/09 A3002 RMK AO2 SLP137 T01220094 53000

Decode

TAF

TAF KMYL 251120Z 2512/2612 VRB04KT P6SM BKN150 FM252200 VRB04KT P6SM -SHRA VCTS OVC050CB TEMPO 2603/2606 VRB20G30KT -TSRA FM260600 VRB04KT P6SM VCSH BKN050

Decode

Destination Runways

ID Width Length Bearing (true) Bearing (mag) Surface Threshold Offset Overrun Length
16 75 ft / 23 m 6,113 ft / 1,863 m 178.61° 165.08° Asphalt 0 ft / 0 m 56 ft / 17 m
34 75 ft / 23 m 6,113 ft / 1,863 m 358.61° 345.08° Asphalt 0 ft / 0 m 0 ft / 0 m

Popular Alternatives